Time,TemperatureF,DewpointF,PressureIn,WindDirection,WindDirectionDegrees,WindSpeedMPH,WindSpeedGustMPH,Humidity,HourlyPrecipIn,Conditions,Clouds,dailyrainin,SoftwareType,DateUTC
2013-09-17 00:02:00,68.0,59.0,30.22,West,259,0.0,1.0,74,0.00,,,0.00,weatherlink.com 1.10,2013-09-17 04:02:00,
2013-09-17 00:17:00,67.7,60.0,30.22,West,259,0.0,0.0,76,0.00,,,0.00,weatherlink.com 1.10,2013-09-17 04:17:00,
2013-09-17 00:32:00,67.3,60.0,30.21,WSW,258,0.0,0.0,76,0.00,,,0.00,weatherlink.com 1.10,2013-09-17 04:32:00,
2013-09-17 00:47:00,66.9,59.0,30.22,West,259,0.0,0.0,76,0.00,,,0.00,weatherlink.com 1.10,2013-09-17 04:47:00,
2013-09-17 01:02:00,66.6,59.0,30.22,West,259,0.0,0.0,77,0.00,,,0.00,weatherlink.com 1.10,2013-09-17 05:02:00,
2013-09-17 01:17:00,66.2,59.0,30.22,West,259,0.0,0.0,77,0.00,,,0.00,weatherlink.com 1.10,2013-09-17 05:17:00,
2013-09-17 01:32:00,65.8,58.0,30.22,West,259,0.0,0.0,77,0.00,,,0.00,weatherlink.com 1.10,2013-09-17 05:32:00,
2013-09-17 01:47:00,65.3,58.0,30.22,West,259,0.0,0.0,78,0.00,,,0.00,weatherlink.com 1.10,2013-09-17 05:47:00,
2013-09-17 02:02:00,65.0,58.0,30.23,West,259,0.0,0.0,78,0.00,,,0.00,weatherlink.com 1.10,2013-09-17 06:02:00,
2013-09-17 02:17:00,64.7,58.0,30.22,West,259,0.0,0.0,78,0.00,,,0.00,weatherlink.com 1.10,2013-09-17 06:17:00,
2013-09-17 02:32:00,64.2,57.0,30.22,West,259,0.0,0.0,78,0.00,,,0.00,weatherlink.com 1.10,2013-09-17 06:32:00,
2013-09-17 02:47:00,63.8,57.0,30.23,West,259,0.0,0.0,79,0.00,,,0.00,weatherlink.com 1.10,2013-09-17 06:47:00,
2013-09-17 03:02:00,63.4,57.0,30.23,WSW,258,0.0,0.0,80,0.00,,,0.00,weatherlink.com 1.10,2013-09-17 07:02:00,
2013-09-17 03:17:00,63.1,57.0,30.23,West,259,0.0,0.0,79,0.00,,,0.00,weatherlink.com 1.10,2013-09-17 07:17:00,
2013-09-17 03:32:00,63.1,57.0,30.23,WSW,258,0.0,0.0,79,0.00,,,0.00,weatherlink.com 1.10,2013-09-17 07:32:00,
2013-09-17 03:47:00,63.0,56.0,30.23,WSW,257,0.0,0.0,79,0.00,,,0.00,weatherlink.com 1.10,2013-09-17 07:47:00,
2013-09-17 04:02:00,62.7,56.0,30.23,WSW,257,0.0,0.0,79,0.00,,,0.00,weatherlink.com 1.10,2013-09-17 08:02:00,
2013-09-17 04:17:00,62.2,56.0,30.24,West,259,0.0,0.0,79,0.00,,,0.00,weatherlink.com 1.10,2013-09-17 08:17:00,
2013-09-17 04:32:00,61.8,55.0,30.24,WSW,258,0.0,0.0,79,0.00,,,0.00,weatherlink.com 1.10,2013-09-17 08:32:00,
2013-09-17 04:47:00,61.4,55.0,30.24,WSW,257,0.0,0.0,80,0.00,,,0.00,weatherlink.com 1.10,2013-09-17 08:47:00,
2013-09-17 05:02:00,61.1,55.0,30.24,WSW,258,0.0,0.0,80,0.00,,,0.00,weatherlink.com 1.10,2013-09-17 09:02:00,
2013-09-17 05:17:00,60.9,55.0,30.25,West,259,0.0,0.0,80,0.00,,,0.00,weatherlink.com 1.10,2013-09-17 09:17:00,
2013-09-17 05:33:00,60.7,55.0,30.25,WSW,258,0.0,0.0,81,0.00,,,0.00,weatherlink.com 1.10,2013-09-17 09:33:00,
2013-09-17 05:48:00,60.5,54.0,30.25,WSW,258,0.0,0.0,80,0.00,,,0.00,weatherlink.com 1.10,2013-09-17 09:48:00,
2013-09-17 06:03:00,60.3,54.0,30.26,WSW,258,0.0,0.0,81,0.00,,,0.00,weatherlink.com 1.10,2013-09-17 10:03:00,
2013-09-17 06:18:00,59.9,54.0,30.26,WSW,258,0.0,0.0,81,0.00,,,0.00,weatherlink.com 1.10,2013-09-17 10:18:00,
2013-09-17 06:33:00,59.5,54.0,30.27,WSW,258,0.0,0.0,81,0.00,,,0.00,weatherlink.com 1.10,2013-09-17 10:33:00,
2013-09-17 06:48:00,59.2,53.0,30.27,WSW,258,0.0,0.0,81,0.00,,,0.00,weatherlink.com 1.10,2013-09-17 10:48:00,
2013-09-17 07:03:00,58.9,53.0,30.28,WSW,258,0.0,0.0,81,0.00,,,0.00,weatherlink.com 1.10,2013-09-17 11:03:00,
2013-09-17 07:18:00,58.7,53.0,30.29,WSW,258,0.0,0.0,82,0.00,,,0.00,weatherlink.com 1.10,2013-09-17 11:18:00,
2013-09-17 07:33:00,58.5,53.0,30.30,WSW,257,0.0,0.0,82,0.00,,,0.00,weatherlink.com 1.10,2013-09-17 11:33:00,
2013-09-17 07:48:00,58.3,53.0,30.30,WSW,258,0.0,0.0,82,0.00,,,0.00,weatherlink.com 1.10,2013-09-17 11:48:00,
2013-09-17 08:03:00,58.4,53.0,30.30,WSW,258,0.0,0.0,82,0.00,,,0.00,weatherlink.com 1.10,2013-09-17 12:03:00,
2013-09-17 08:18:00,58.6,53.0,30.31,WSW,258,0.0,0.0,82,0.00,,,0.00,weatherlink.com 1.10,2013-09-17 12:18:00,
2013-09-17 08:33:00,59.0,54.0,30.31,West,261,0.0,1.0,82,0.00,,,0.00,weatherlink.com 1.10,2013-09-17 12:33:00,
2013-09-17 08:48:00,59.7,54.0,30.32,West,261,0.0,1.0,82,0.00,,,0.00,weatherlink.com 1.10,2013-09-17 12:48:00,
2013-09-17 09:03:00,60.3,55.0,30.32,West,260,0.0,1.0,82,0.00,,,0.00,weatherlink.com 1.10,2013-09-17 13:03:00,
2013-09-17 09:18:00,61.3,55.0,30.33,West,260,0.0,1.0,81,0.00,,,0.00,weatherlink.com 1.10,2013-09-17 13:18:00,
2013-09-17 09:33:00,62.1,56.0,30.32,East,86,0.0,2.0,80,0.00,,,0.00,weatherlink.com 1.10,2013-09-17 13:33:00,
2013-09-17 09:48:00,63.3,57.0,30.33,SSW,198,0.0,1.0,79,0.00,,,0.00,weatherlink.com 1.10,2013-09-17 13:48:00,
2013-09-17 10:03:00,64.3,58.0,30.33,NW,315,0.0,1.0,79,0.00,,,0.00,weatherlink.com 1.10,2013-09-17 14:03:00,
2013-09-17 10:18:00,65.3,58.0,30.34,West,277,0.0,3.0,76,0.00,,,0.00,weatherlink.com 1.10,2013-09-17 14:18:00,
2013-09-17 10:33:00,66.4,57.0,30.34,North,360,0.0,2.0,71,0.00,,,0.00,weatherlink.com 1.10,2013-09-17 14:33:00,
2013-09-17 10:48:00,67.2,57.0,30.34,West,263,0.0,2.0,69,0.00,,,0.00,weatherlink.com 1.10,2013-09-17 14:48:00,
2013-09-17 11:03:00,68.2,57.0,30.34,WSW,252,0.0,1.0,67,0.00,,,0.00,weatherlink.com 1.10,2013-09-17 15:03:00,
2013-09-17 11:18:00,69.0,57.0,30.34,SE,132,0.0,2.0,66,0.00,,,0.00,weatherlink.com 1.10,2013-09-17 15:18:00,
2013-09-17 11:33:00,70.1,57.0,30.34,NNW,336,1.0,4.0,64,0.00,,,0.00,weatherlink.com 1.10,2013-09-17 15:33:00,
2013-09-17 11:48:00,70.9,57.0,30.34,SSE,165,0.0,4.0,61,0.00,,,0.00,weatherlink.com 1.10,2013-09-17 15:48:00,
2013-09-17 12:03:00,71.4,57.0,30.33,South,183,0.0,2.0,60,0.00,,,0.00,weatherlink.com 1.10,2013-09-17 16:03:00,
2013-09-17 12:18:00,71.9,55.0,30.33,SW,233,0.0,3.0,56,0.00,,,0.00,weatherlink.com 1.10,2013-09-17 16:18:00,
2013-09-17 12:33:00,72.0,54.0,30.32,North,360,0.0,5.0,53,0.00,,,0.00,weatherlink.com 1.10,2013-09-17 16:33:00,
2013-09-17 12:48:00,72.4,55.0,30.32,NNW,332,1.0,3.0,54,0.00,,,0.00,weatherlink.com 1.10,2013-09-17 16:48:00,
2013-09-17 13:03:00,72.5,54.0,30.32,West,266,0.0,2.0,52,0.00,,,0.00,weatherlink.com 1.10,2013-09-17 17:03:00,
2013-09-17 13:18:00,72.4,54.0,30.32,NNW,340,0.0,2.0,52,0.00,,,0.00,weatherlink.com 1.10,2013-09-17 17:18:00,
2013-09-17 13:33:00,73.0,54.0,30.31,ESE,106,0.0,3.0,51,0.00,,,0.00,weatherlink.com 1.10,2013-09-17 17:33:00,
2013-09-17 13:49:00,73.3,53.0,30.31,NNW,339,0.0,4.0,49,0.00,,,0.00,weatherlink.com 1.10,2013-09-17 17:49:00,
2013-09-17 14:04:00,73.4,53.0,30.30,North,360,0.0,2.0,49,0.00,,,0.00,weatherlink.com 1.10,2013-09-17 18:04:00,
2013-09-17 14:19:00,73.1,53.0,30.30,WSW,242,0.0,3.0,49,0.00,,,0.00,weatherlink.com 1.10,2013-09-17 18:19:00,
2013-09-17 14:34:00,73.3,52.0,30.30,NW,319,1.0,5.0,48,0.00,,,0.00,weatherlink.com 1.10,2013-09-17 18:34:00,
2013-09-17 14:49:00,73.1,53.0,30.29,NE,34,0.0,2.0,49,0.00,,,0.00,weatherlink.com 1.10,2013-09-17 18:49:00,
2013-09-17 15:04:00,73.1,52.0,30.28,ESE,118,0.0,2.0,47,0.00,,,0.00,weatherlink.com 1.10,2013-09-17 19:04:00,
2013-09-17 15:19:00,73.1,53.0,30.28,North,360,0.0,4.0,49,0.00,,,0.00,weatherlink.com 1.10,2013-09-17 19:19:00,
2013-09-17 15:34:00,73.0,53.0,30.27,North,360,0.0,3.0,50,0.00,,,0.00,weatherlink.com 1.10,2013-09-17 19:34:00,
2013-09-17 15:49:00,73.1,53.0,30.27,South,170,0.0,2.0,50,0.00,,,0.00,weatherlink.com 1.10,2013-09-17 19:49:00,
2013-09-17 16:04:00,73.2,53.0,30.27,West,273,0.0,1.0,49,0.00,,,0.00,weatherlink.com 1.10,2013-09-17 20:04:00,
2013-09-17 16:19:00,73.2,52.0,30.27,NNW,342,0.0,3.0,47,0.00,,,0.00,weatherlink.com 1.10,2013-09-17 20:19:00,
2013-09-17 16:34:00,73.0,53.0,30.27,NNW,333,0.0,1.0,49,0.00,,,0.00,weatherlink.com 1.10,2013-09-17 20:34:00,
2013-09-17 16:49:00,73.0,53.0,30.26,ENE,63,0.0,2.0,49,0.00,,,0.00,weatherlink.com 1.10,2013-09-17 20:49:00,
2013-09-17 17:04:00,73.1,52.0,30.26,ESE,107,0.0,1.0,48,0.00,,,0.00,weatherlink.com 1.10,2013-09-17 21:04:00,
2013-09-17 17:19:00,72.6,54.0,30.26,ESE,107,0.0,1.0,52,0.00,,,0.00,weatherlink.com 1.10,2013-09-17 21:19:00,
2013-09-17 17:34:00,72.2,53.0,30.26,ENE,63,0.0,1.0,52,0.00,,,0.00,weatherlink.com 1.10,2013-09-17 21:34:00,
2013-09-17 17:49:00,71.8,56.0,30.26,ENE,63,0.0,1.0,57,0.00,,,0.00,weatherlink.com 1.10,2013-09-17 21:49:00,
2013-09-17 18:04:00,71.1,54.0,30.26,ENE,63,0.0,1.0,55,0.00,,,0.00,weatherlink.com 1.10,2013-09-17 22:04:00,
2013-09-17 18:19:00,70.6,56.0,30.26,ENE,63,0.0,0.0,60,0.00,,,0.00,weatherlink.com 1.10,2013-09-17 22:19:00,
2013-09-17 18:34:00,69.7,56.0,30.26,ENE,63,0.0,1.0,61,0.00,,,0.00,weatherlink.com 1.10,2013-09-17 22:34:00,
2013-09-17 18:49:00,68.6,56.0,30.26,ENE,63,0.0,0.0,64,0.00,,,0.00,weatherlink.com 1.10,2013-09-17 22:49:00,
2013-09-17 19:04:00,67.6,55.0,30.26,ENE,63,0.0,0.0,65,0.00,,,0.00,weatherlink.com 1.10,2013-09-17 23:04:00,
2013-09-17 19:19:00,66.6,55.0,30.26,ENE,63,0.0,0.0,67,0.00,,,0.00,weatherlink.com 1.10,2013-09-17 23:19:00,
2013-09-17 19:34:00,65.6,56.0,30.27,ENE,63,0.0,0.0,70,0.00,,,0.00,weatherlink.com 1.10,2013-09-17 23:34:00,
2013-09-17 19:49:00,64.7,55.0,30.27,ENE,63,0.0,0.0,72,0.00,,,0.00,weatherlink.com 1.10,2013-09-17 23:49:00,
2013-09-17 20:04:00,63.9,55.0,30.27,ENE,63,0.0,0.0,74,0.00,,,0.00,weatherlink.com 1.10,2013-09-18 00:04:00,
2013-09-17 20:19:00,63.2,55.0,30.27,ENE,63,0.0,0.0,75,0.00,,,0.00,weatherlink.com 1.10,2013-09-18 00:19:00,
2013-09-17 20:34:00,62.7,55.0,30.27,ENE,63,0.0,0.0,76,0.00,,,0.00,weatherlink.com 1.10,2013-09-18 00:34:00,
2013-09-17 20:49:00,62.1,55.0,30.28,ENE,63,0.0,0.0,77,0.00,,,0.00,weatherlink.com 1.10,2013-09-18 00:49:00,
2013-09-17 21:04:00,61.7,54.0,30.29,ENE,63,0.0,0.0,77,0.00,,,0.00,weatherlink.com 1.10,2013-09-18 01:04:00,
2013-09-17 21:19:00,61.4,54.0,30.29,ENE,63,0.0,0.0,77,0.00,,,0.00,weatherlink.com 1.10,2013-09-18 01:19:00,
2013-09-17 21:34:00,61.1,54.0,30.30,ENE,63,0.0,0.0,78,0.00,,,0.00,weatherlink.com 1.10,2013-09-18 01:34:00,
2013-09-17 21:49:00,60.8,54.0,30.30,ENE,63,0.0,0.0,77,0.00,,,0.00,weatherlink.com 1.10,2013-09-18 01:49:00,
2013-09-17 22:04:00,60.4,53.0,30.30,ENE,63,0.0,1.0,77,0.00,,,0.00,weatherlink.com 1.10,2013-09-18 02:04:00,
2013-09-17 22:19:00,60.0,53.0,30.31,ENE,63,0.0,0.0,78,0.00,,,0.00,weatherlink.com 1.10,2013-09-18 02:19:00,
2013-09-17 22:34:00,59.7,52.0,30.31,ENE,63,0.0,0.0,77,0.00,,,0.00,weatherlink.com 1.10,2013-09-18 02:34:00,
2013-09-17 22:49:00,59.3,52.0,30.31,ENE,63,0.0,0.0,77,0.00,,,0.00,weatherlink.com 1.10,2013-09-18 02:49:00,
2013-09-17 23:04:00,59.0,52.0,30.32,ENE,63,0.0,0.0,77,0.00,,,0.00,weatherlink.com 1.10,2013-09-18 03:04:00,
2013-09-17 23:19:00,58.8,52.0,30.32,ENE,63,0.0,0.0,78,0.00,,,0.00,weatherlink.com 1.10,2013-09-18 03:19:00,
2013-09-17 23:34:00,58.5,52.0,30.32,ENE,63,0.0,0.0,78,0.00,,,0.00,weatherlink.com 1.10,2013-09-18 03:34:00,
2013-09-17 23:49:00,58.2,51.0,30.32,ENE,63,0.0,0.0,78,0.00,,,0.00,weatherlink.com 1.10,2013-09-18 03:49:00,